createdAt,value
2022-10-06T00:07:53.223Z,78.0
2022-10-06T00:19:53.348Z,78.0
2022-10-06T00:31:53.280Z,78.0
2022-10-06T00:43:53.334Z,78.0
2022-10-06T00:55:53.388Z,78.0
2022-10-06T01:07:53.389Z,78.0
2022-10-06T01:19:53.284Z,78.0
2022-10-06T01:31:53.200Z,78.0
2022-10-06T01:43:53.262Z,78.0
2022-10-06T01:55:53.168Z,78.0
2022-10-06T02:07:53.161Z,78.0
2022-10-06T02:19:53.276Z,78.0
2022-10-06T02:31:53.166Z,78.0
2022-10-06T02:43:53.241Z,78.0
2022-10-06T02:55:53.159Z,78.0
2022-10-06T03:07:53.158Z,78.0
2022-10-06T03:19:53.273Z,78.0
2022-10-06T03:31:53.169Z,78.0
2022-10-06T03:43:53.274Z,78.0
2022-10-06T03:55:53.251Z,78.0
2022-10-06T04:07:53.195Z,78.0
2022-10-06T04:19:53.164Z,78.0
2022-10-06T04:31:53.223Z,78.0
2022-10-06T04:43:53.247Z,78.0
2022-10-06T04:55:53.162Z,78.0
2022-10-06T05:07:53.160Z,78.0
2022-10-06T05:19:53.161Z,78.0
2022-10-06T05:31:53.210Z,78.0
2022-10-06T05:43:53.230Z,78.0
2022-10-06T05:55:53.512Z,78.0
2022-10-06T06:07:53.437Z,78.0
2022-10-06T06:19:53.159Z,78.0
2022-10-06T06:31:53.233Z,78.0
2022-10-06T06:43:53.364Z,78.0
2022-10-06T06:55:53.168Z,78.0
2022-10-06T07:07:53.163Z,78.0
2022-10-06T07:19:53.166Z,78.0
2022-10-06T07:31:53.285Z,78.0
2022-10-06T07:43:53.270Z,78.0
2022-10-06T07:55:53.158Z,78.0
2022-10-06T08:07:53.376Z,78.0
2022-10-06T08:19:53.158Z,78.0
2022-10-06T08:31:53.276Z,78.0
2022-10-06T08:43:53.240Z,78.0
2022-10-06T08:55:53.233Z,56.4
2022-10-06T09:07:53.276Z,56.4
2022-10-06T09:19:53.524Z,56.4
2022-10-06T09:31:53.285Z,56.4
2022-10-06T09:43:53.166Z,56.4
2022-10-06T09:55:53.277Z,56.4
2022-10-06T10:07:53.161Z,56.4
2022-10-06T10:19:53.240Z,56.4
2022-10-06T10:31:53.243Z,56.4
2022-10-06T10:43:53.278Z,56.4
2022-10-06T10:55:53.240Z,56.4
2022-10-06T11:07:53.296Z,56.4
2022-10-06T11:19:53.226Z,56.4
2022-10-06T11:31:53.307Z,56.4
2022-10-06T11:43:53.267Z,56.4
2022-10-06T11:55:53.159Z,56.4
2022-10-06T12:07:53.268Z,56.4
2022-10-06T12:19:53.241Z,56.4
2022-10-06T12:31:53.280Z,56.4
2022-10-06T12:43:53.148Z,56.4
2022-10-06T12:55:53.268Z,56.4
2022-10-06T13:07:53.278Z,56.4
2022-10-06T13:19:53.200Z,57.7
2022-10-06T13:31:53.467Z,67.5
2022-10-06T13:43:53.273Z,67.4
2022-10-06T13:55:53.282Z,67.4
2022-10-06T14:07:53.154Z,67.4
2022-10-06T14:19:53.238Z,51.4
2022-10-06T14:31:53.237Z,43.6
2022-10-06T14:43:53.180Z,51.1
2022-10-06T14:55:53.250Z,50.4
2022-10-06T15:07:53.157Z,54.1
2022-10-06T15:19:53.159Z,56.6
2022-10-06T15:31:53.224Z,57.3
2022-10-06T15:43:53.170Z,59.0
2022-10-06T15:55:53.161Z,61.5
2022-10-06T16:07:53.249Z,62.8
2022-10-06T16:19:53.173Z,65.6
2022-10-06T16:31:53.211Z,68.5
2022-10-06T16:43:53.159Z,68.7
2022-10-06T16:55:55.191Z,71.0
2022-10-06T17:07:58.336Z,70.8
2022-10-06T17:19:53.164Z,74.7
2022-10-06T17:31:53.418Z,76.6
2022-10-06T17:43:53.161Z,76.9
2022-10-06T17:55:53.158Z,75.4
2022-10-06T18:07:53.163Z,77.1
2022-10-06T18:19:53.158Z,77.0
2022-10-06T18:31:53.222Z,78.5
2022-10-06T18:43:53.159Z,79.6
2022-10-06T18:55:53.159Z,80.7
2022-10-06T19:07:53.168Z,81.4
2022-10-06T19:19:53.262Z,81.2
2022-10-06T19:31:53.157Z,81.6
2022-10-06T19:43:53.163Z,82.0
2022-10-06T19:55:53.156Z,84.6
2022-10-06T20:07:53.159Z,87.1
2022-10-06T20:19:57.422Z,87.9
2022-10-06T20:31:53.169Z,86.9
2022-10-06T20:43:53.235Z,88.5
2022-10-06T20:55:53.165Z,91.9
2022-10-06T21:07:53.248Z,91.8
2022-10-06T21:19:53.243Z,93.4
2022-10-06T21:31:53.241Z,97.4
2022-10-06T21:43:53.243Z,97.4
2022-10-06T21:55:53.244Z,97.4
2022-10-06T22:07:53.239Z,97.3
2022-10-06T22:19:53.237Z,97.3
2022-10-06T22:31:53.457Z,97.3
2022-10-06T22:43:53.386Z,97.3
2022-10-06T22:55:53.243Z,97.3
2022-10-06T23:07:53.241Z,97.3
2022-10-06T23:19:53.243Z,97.2
2022-10-06T23:31:53.279Z,97.2
2022-10-06T23:43:53.243Z,97.1
2022-10-06T23:55:53.247Z,97.2
